sensor_id;sensor_type;location;lat;lon;timestamp;pressure;altitude;pressure_sealevel;temperature;humidity
68320;BME280;55168;51.120;17.024;2024-03-23T00:52:00;99430;;;9.2;100.0
68320;BME280;55168;51.120;17.024;2024-03-23T00:53:00;99440;;;9.1;100.0
68320;BME280;55168;51.120;17.024;2024-03-23T00:54:00;99440;;;9.1;100.0
68320;BME280;55168;51.120;17.024;2024-03-23T00:55:00;99440;;;9.1;100.0
68320;BME280;55168;51.120;17.024;2024-03-23T00:56:00;99440;;;9.1;100.0
68320;BME280;55168;51.120;17.024;2024-03-23T00:57:00;99430;;;9.1;100.0
68320;BME280;55168;51.120;17.024;2024-03-23T00:58:00;99430;;;9.1;100.0
68320;BME280;55168;51.120;17.024;2024-03-23T00:59:00;99430;;;9.1;100.0
68320;BME280;55168;51.120;17.024;2024-03-23T01:00:00;99430;;;9.1;100.0
68320;BME280;55168;51.120;17.024;2024-03-23T01:01:00;99420;;;9.2;100.0
68320;BME280;55168;51.120;17.024;2024-03-23T01:02:00;99430;;;9.2;100.0
68320;BME280;55168;51.120;17.024;2024-03-23T01:03:00;99420;;;9.1;100.0
68320;BME280;55168;51.120;17.024;2024-03-23T01:04:00;99420;;;9.2;100.0
68320;BME280;55168;51.120;17.024;2024-03-23T01:05:00;99420;;;9.1;100.0
68320;BME280;55168;51.120;17.024;2024-03-23T01:06:00;99420;;;9.1;100.0
68320;BME280;55168;51.120;17.024;2024-03-23T01:07:00;99420;;;9.1;100.0
68320;BME280;55168;51.120;17.024;2024-03-23T01:08:00;99420;;;9.1;100.0
68320;BME280;55168;51.120;17.024;2024-03-23T01:09:00;99420;;;9.1;100.0
68320;BME280;55168;51.120;17.024;2024-03-23T01:10:00;99420;;;9.1;100.0
68320;BME280;55168;51.120;17.024;2024-03-23T01:11:00;99410;;;9.1;100.0
68320;BME280;55168;51.120;17.024;2024-03-23T01:12:00;99410;;;9.1;100.0
68320;BME280;55168;51.120;17.024;2024-03-23T01:13:00;99410;;;9.1;100.0
68320;BME280;55168;51.120;17.024;2024-03-23T01:14:00;99400;;;9.1;100.0
68320;BME280;55168;51.120;17.024;2024-03-23T01:15:00;99410;;;9.1;100.0
68320;BME280;55168;51.120;17.024;2024-03-23T01:16:00;99410;;;9.1;100.0
68320;BME280;55168;51.120;17.024;2024-03-23T01:17:00;99400;;;9.1;100.0
68320;BME280;55168;51.120;17.024;2024-03-23T01:18:00;99400;;;9.1;100.0
68320;BME280;55168;51.120;17.024;2024-03-23T01:19:00;99400;;;9.1;100.0
68320;BME280;55168;51.120;17.024;2024-03-23T01:20:00;99400;;;9.1;100.0
68320;BME280;55168;51.120;17.024;2024-03-23T01:21:00;99400;;;9.1;100.0
68320;BME280;55168;51.120;17.024;2024-03-23T01:22:00;99400;;;9.1;100.0
68320;BME280;55168;51.120;17.024;2024-03-23T01:23:00;99400;;;9.1;100.0
68320;BME280;55168;51.120;17.024;2024-03-23T01:24:00;99390;;;9.1;100.0
68320;BME280;55168;51.120;17.024;2024-03-23T01:25:00;99390;;;9.1;100.0
68320;BME280;55168;51.120;17.024;2024-03-23T01:26:00;99390;;;9.1;100.0
68320;BME280;55168;51.120;17.024;2024-03-23T01:27:00;99390;;;9.1;100.0
68320;BME280;55168;51.120;17.024;2024-03-23T01:28:00;99380;;;9.1;100.0
68320;BME280;55168;51.120;17.024;2024-03-23T01:29:00;99380;;;9.1;100.0
68320;BME280;55168;51.120;17.024;2024-03-23T01:30:00;99380;;;9.1;100.0
68320;BME280;55168;51.120;17.024;2024-03-23T01:31:00;99370;;;9.1;100.0
68320;BME280;55168;51.120;17.024;2024-03-23T01:32:00;99370;;;9.1;100.0
68320;BME280;55168;51.120;17.024;2024-03-23T01:33:00;99370;;;9.1;100.0
68320;BME280;55168;51.120;17.024;2024-03-23T01:34:00;99360;;;9.2;100.0
68320;BME280;55168;51.120;17.024;2024-03-23T01:35:00;99360;;;9.2;100.0
68320;BME280;55168;51.120;17.024;2024-03-23T01:36:00;99360;;;9.2;100.0
68320;BME280;55168;51.120;17.024;2024-03-23T01:37:00;99360;;;9.2;100.0
68320;BME280;55168;51.120;17.024;2024-03-23T01:38:00;99360;;;9.2;100.0
68320;BME280;55168;51.120;17.024;2024-03-23T01:39:00;99360;;;9.2;100.0
68320;BME280;55168;51.120;17.024;2024-03-23T01:40:00;99350;;;9.3;100.0
68320;BME280;55168;51.120;17.024;2024-03-23T01:41:00;99350;;;9.3;100.0
68320;BME280;55168;51.120;17.024;2024-03-23T01:42:00;99340;;;9.3;100.0
68320;BME280;55168;51.120;17.024;2024-03-23T01:43:03;99340;;;9.3;100.0
68320;BME280;55168;51.120;17.024;2024-03-23T01:44:00;99340;;;9.3;100.0
68320;BME280;55168;51.120;17.024;2024-03-23T01:45:00;99330;;;9.3;100.0
68320;BME280;55168;51.120;17.024;2024-03-23T01:46:00;99330;;;9.3;100.0
68320;BME280;55168;51.120;17.024;2024-03-23T01:47:00;99330;;;9.3;100.0
68320;BME280;55168;51.120;17.024;2024-03-23T01:48:00;99330;;;9.3;100.0
68320;BME280;55168;51.120;17.024;2024-03-23T01:49:00;99330;;;9.3;100.0
68320;BME280;55168;51.120;17.024;2024-03-23T01:50:00;99330;;;9.3;100.0
68320;BME280;55168;51.120;17.024;2024-03-23T01:51:00;99330;;;9.3;100.0
68320;BME280;55168;51.120;17.024;2024-03-23T01:52:00;99330;;;9.3;100.0
68320;BME280;55168;51.120;17.024;2024-03-23T01:53:01;99330;;;9.3;100.0
68320;BME280;55168;51.120;17.024;2024-03-23T01:54:00;99320;;;9.3;100.0
68320;BME280;55168;51.120;17.024;2024-03-23T01:55:00;99320;;;9.3;100.0
68320;BME280;55168;51.120;17.024;2024-03-23T01:56:00;99320;;;9.3;100.0
68320;BME280;55168;51.120;17.024;2024-03-23T01:57:00;99320;;;9.3;100.0
68320;BME280;55168;51.120;17.024;2024-03-23T01:58:00;99320;;;9.3;100.0
68320;BME280;55168;51.120;17.024;2024-03-23T01:59:00;99320;;;9.3;100.0
68320;BME280;55168;51.120;17.024;2024-03-23T02:00:00;99320;;;9.2;100.0
68320;BME280;55168;51.120;17.024;2024-03-23T02:01:00;99320;;;9.2;100.0
68320;BME280;55168;51.120;17.024;2024-03-23T02:02:00;99320;;;9.2;100.0
68320;BME280;55168;51.120;17.024;2024-03-23T02:03:00;99320;;;9.2;100.0
68320;BME280;55168;51.120;17.024;2024-03-23T02:04:00;99320;;;9.2;100.0
68320;BME280;55168;51.120;17.024;2024-03-23T02:05:00;99320;;;9.2;100.0
68320;BME280;55168;51.120;17.024;2024-03-23T02:06:00;99320;;;9.2;100.0
68320;BME280;55168;51.120;17.024;2024-03-23T02:07:00;99320;;;9.2;100.0
68320;BME280;55168;51.120;17.024;2024-03-23T02:08:00;99320;;;9.2;100.0
68320;BME280;55168;51.120;17.024;2024-03-23T02:09:00;99320;;;9.2;100.0
68320;BME280;55168;51.120;17.024;2024-03-23T02:10:00;99320;;;9.2;100.0
68320;BME280;55168;51.120;17.024;2024-03-23T02:11:00;99320;;;9.1;100.0
68320;BME280;55168;51.120;17.024;2024-03-23T02:12:01;99320;;;9.2;100.0
68320;BME280;55168;51.120;17.024;2024-03-23T02:13:00;99310;;;9.1;100.0
68320;BME280;55168;51.120;17.024;2024-03-23T02:14:00;99310;;;9.2;100.0
68320;BME280;55168;51.120;17.024;2024-03-23T02:15:00;99310;;;9.2;100.0
68320;BME280;55168;51.120;17.024;2024-03-23T02:16:00;99300;;;9.2;100.0
68320;BME280;55168;51.120;17.024;2024-03-23T02:17:00;99300;;;9.2;100.0
68320;BME280;55168;51.120;17.024;2024-03-23T02:18:00;99300;;;9.2;100.0
68320;BME280;55168;51.120;17.024;2024-03-23T02:19:00;99300;;;9.2;100.0
68320;BME280;55168;51.120;17.024;2024-03-23T02:20:00;99290;;;9.2;100.0
68320;BME280;55168;51.120;17.024;2024-03-23T02:21:00;99290;;;9.2;100.0
68320;BME280;55168;51.120;17.024;2024-03-23T02:22:00;99300;;;9.2;100.0
68320;BME280;55168;51.120;17.024;2024-03-23T02:23:00;99290;;;9.2;100.0
68320;BME280;55168;51.120;17.024;2024-03-23T02:24:00;99290;;;9.2;100.0
68320;BME280;55168;51.120;17.024;2024-03-23T02:25:00;99280;;;9.2;100.0
68320;BME280;55168;51.120;17.024;2024-03-23T02:26:00;99280;;;9.2;100.0
68320;BME280;55168;51.120;17.024;2024-03-23T02:27:00;99280;;;9.2;100.0
68320;BME280;55168;51.120;17.024;2024-03-23T02:28:00;99280;;;9.2;100.0
68320;BME280;55168;51.120;17.024;2024-03-23T02:29:00;99280;;;9.2;100.0
68320;BME280;55168;51.120;17.024;2024-03-23T02:30:00;99280;;;9.2;100.0
68320;BME280;55168;51.120;17.024;2024-03-23T02:31:00;99270;;;9.2;100.0
68320;BME280;55168;51.120;17.024;2024-03-23T02:32:00;99270;;;9.2;100.0
68320;BME280;55168;51.120;17.024;2024-03-23T02:33:00;99270;;;9.2;100.0
68320;BME280;55168;51.120;17.024;2024-03-23T02:34:00;99270;;;9.2;100.0
68320;BME280;55168;51.120;17.024;2024-03-23T02:35:00;99270;;;9.2;100.0
68320;BME280;55168;51.120;17.024;2024-03-23T02:36:00;99270;;;9.2;100.0
68320;BME280;55168;51.120;17.024;2024-03-23T02:37:00;99270;;;9.2;100.0
68320;BME280;55168;51.120;17.024;2024-03-23T02:38:00;99270;;;9.2;100.0
68320;BME280;55168;51.120;17.024;2024-03-23T02:39:00;99270;;;9.2;100.0
68320;BME280;55168;51.120;17.024;2024-03-23T02:40:00;99270;;;9.2;100.0
68320;BME280;55168;51.120;17.024;2024-03-23T02:41:02;99270;;;9.1;100.0
68320;BME280;55168;51.120;17.024;2024-03-23T02:42:00;99270;;;9.1;100.0
68320;BME280;55168;51.120;17.024;2024-03-23T02:43:00;99260;;;9.1;100.0
68320;BME280;55168;51.120;17.024;2024-03-23T02:44:00;99260;;;9.1;100.0
68320;BME280;55168;51.120;17.024;2024-03-23T02:45:00;99260;;;9.1;100.0
68320;BME280;55168;51.120;17.024;2024-03-23T02:46:00;99260;;;9.1;100.0
68320;BME280;55168;51.120;17.024;2024-03-23T02:47:00;99260;;;9.1;100.0
68320;BME280;55168;51.120;17.024;2024-03-23T02:48:00;99260;;;9.1;100.0
68320;BME280;55168;51.120;17.024;2024-03-23T02:49:00;99260;;;9.1;100.0
68320;BME280;55168;51.120;17.024;2024-03-23T02:50:00;99260;;;9.1;100.0
68320;BME280;55168;51.120;17.024;2024-03-23T02:51:00;99260;;;9.1;100.0
68320;BME280;55168;51.120;17.024;2024-03-23T02:52:00;99260;;;9.1;100.0
68320;BME280;55168;51.120;17.024;2024-03-23T02:53:00;99260;;;9.1;100.0
68320;BME280;55168;51.120;17.024;2024-03-23T02:54:00;99260;;;9.1;100.0
68320;BME280;55168;51.120;17.024;2024-03-23T02:55:00;99250;;;9.0;100.0
68320;BME280;55168;51.120;17.024;2024-03-23T02:56:00;99250;;;9.0;100.0
68320;BME280;55168;51.120;17.024;2024-03-23T02:57:00;99250;;;9.0;100.0
68320;BME280;55168;51.120;17.024;2024-03-23T02:58:00;99240;;;9.0;100.0
68320;BME280;55168;51.120;17.024;2024-03-23T02:59:00;99240;;;9.0;100.0
68320;BME280;55168;51.120;17.024;2024-03-23T03:00:00;99240;;;9.0;100.0
68320;BME280;55168;51.120;17.024;2024-03-23T03:01:00;99240;;;9.0;100.0
68320;BME280;55168;51.120;17.024;2024-03-23T03:02:00;99230;;;9.0;100.0
68320;BME280;55168;51.120;17.024;2024-03-23T03:03:00;99240;;;9.0;100.0
68320;BME280;55168;51.120;17.024;2024-03-23T03:04:00;99240;;;9.0;100.0
68320;BME280;55168;51.120;17.024;2024-03-23T03:05:00;99230;;;9.0;100.0
68320;BME280;55168;51.120;17.024;2024-03-23T03:06:00;99230;;;9.0;100.0
68320;BME280;55168;51.120;17.024;2024-03-23T03:07:00;99230;;;9.0;100.0
68320;BME280;55168;51.120;17.024;2024-03-23T03:08:00;99240;;;9.0;100.0
68320;BME280;55168;51.120;17.024;2024-03-23T03:09:00;99240;;;9.0;100.0
68320;BME280;55168;51.120;17.024;2024-03-23T03:10:00;99240;;;9.0;100.0
68320;BME280;55168;51.120;17.024;2024-03-23T03:11:00;99240;;;9.0;100.0
68320;BME280;55168;51.120;17.024;2024-03-23T03:12:01;99230;;;9.0;100.0
68320;BME280;55168;51.120;17.024;2024-03-23T03:13:00;99230;;;9.0;100.0
68320;BME280;55168;51.120;17.024;2024-03-23T03:14:00;99230;;;9.0;100.0
68320;BME280;55168;51.120;17.024;2024-03-23T03:15:00;99230;;;9.0;100.0
68320;BME280;55168;51.120;17.024;2024-03-23T03:16:00;99220;;;9.0;100.0
68320;BME280;55168;51.120;17.024;2024-03-23T03:17:00;99220;;;9.0;100.0
68320;BME280;55168;51.120;17.024;2024-03-23T03:18:00;99220;;;9.0;100.0
68320;BME280;55168;51.120;17.024;2024-03-23T03:19:00;99210;;;9.0;100.0
68320;BME280;55168;51.120;17.024;2024-03-23T03:20:00;99220;;;9.0;100.0
68320;BME280;55168;51.120;17.024;2024-03-23T03:21:00;99210;;;9.0;100.0
68320;BME280;55168;51.120;17.024;2024-03-23T03:22:00;99210;;;9.0;100.0
68320;BME280;55168;51.120;17.024;2024-03-23T03:23:00;99210;;;9.0;100.0
68320;BME280;55168;51.120;17.024;2024-03-23T03:24:00;99220;;;9.1;100.0
68320;BME280;55168;51.120;17.024;2024-03-23T03:25:00;99210;;;9.0;100.0
68320;BME280;55168;51.120;17.024;2024-03-23T03:26:00;99210;;;9.1;100.0
68320;BME280;55168;51.120;17.024;2024-03-23T03:27:00;99210;;;9.1;100.0
68320;BME280;55168;51.120;17.024;2024-03-23T03:28:00;99210;;;9.1;100.0
68320;BME280;55168;51.120;17.024;2024-03-23T03:29:00;99210;;;9.1;100.0
68320;BME280;55168;51.120;17.024;2024-03-23T03:30:00;99210;;;9.1;100.0
68320;BME280;55168;51.120;17.024;2024-03-23T03:31:00;99210;;;9.1;100.0
68320;BME280;55168;51.120;17.024;2024-03-23T03:32:00;99200;;;9.1;100.0
68320;BME280;55168;51.120;17.024;2024-03-23T03:33:00;99200;;;9.1;100.0
68320;BME280;55168;51.120;17.024;2024-03-23T03:34:00;99200;;;9.1;100.0
68320;BME280;55168;51.120;17.024;2024-03-23T03:35:00;99200;;;9.1;100.0
68320;BME280;55168;51.120;17.024;2024-03-23T03:36:00;99200;;;9.1;100.0
68320;BME280;55168;51.120;17.024;2024-03-23T03:37:00;99200;;;9.1;100.0
68320;BME280;55168;51.120;17.024;2024-03-23T03:38:00;99190;;;9.1;100.0
68320;BME280;55168;51.120;17.024;2024-03-23T03:39:00;99200;;;9.1;100.0
68320;BME280;55168;51.120;17.024;2024-03-23T03:40:00;99190;;;9.1;100.0
68320;BME280;55168;51.120;17.024;2024-03-23T03:41:00;99190;;;9.1;100.0
68320;BME280;55168;51.120;17.024;2024-03-23T03:42:00;99190;;;9.1;100.0
68320;BME280;55168;51.120;17.024;2024-03-23T03:43:00;99190;;;9.1;100.0
68320;BME280;55168;51.120;17.024;2024-03-23T03:44:00;99190;;;9.1;100.0
68320;BME280;55168;51.120;17.024;2024-03-23T03:45:00;99190;;;9.1;100.0
68320;BME280;55168;51.120;17.024;2024-03-23T03:46:00;99190;;;9.1;100.0
68320;BME280;55168;51.120;17.024;2024-03-23T03:47:00;99190;;;9.1;100.0
68320;BME280;55168;51.120;17.024;2024-03-23T03:48:00;99190;;;9.1;100.0
68320;BME280;55168;51.120;17.024;2024-03-23T03:49:00;99190;;;9.1;100.0
68320;BME280;55168;51.120;17.024;2024-03-23T03:50:00;99180;;;9.1;100.0
68320;BME280;55168;51.120;17.024;2024-03-23T03:51:00;99180;;;9.1;100.0
68320;BME280;55168;51.120;17.024;2024-03-23T03:52:00;99180;;;9.1;100.0
68320;BME280;55168;51.120;17.024;2024-03-23T03:53:00;99190;;;9.1;100.0
68320;BME280;55168;51.120;17.024;2024-03-23T03:54:00;99180;;;9.1;100.0
68320;BME280;55168;51.120;17.024;2024-03-23T03:55:01;99180;;;9.1;100.0
68320;BME280;55168;51.120;17.024;2024-03-23T03:56:00;99170;;;9.1;100.0
68320;BME280;55168;51.120;17.024;2024-03-23T03:57:00;99170;;;9.1;100.0
68320;BME280;55168;51.120;17.024;2024-03-23T03:58:00;99180;;;9.1;100.0
68320;BME280;55168;51.120;17.024;2024-03-23T03:59:00;99170;;;9.1;100.0
68320;BME280;55168;51.120;17.024;2024-03-23T04:00:00;99170;;;9.1;100.0
68320;BME280;55168;51.120;17.024;2024-03-23T04:01:00;99170;;;9.1;100.0
68320;BME280;55168;51.120;17.024;2024-03-23T04:02:00;99170;;;9.1;100.0
68320;BME280;55168;51.120;17.024;2024-03-23T04:03:00;99170;;;9.1;100.0
68320;BME280;55168;51.120;17.024;2024-03-23T04:04:00;99180;;;9.1;100.0
68320;BME280;55168;51.120;17.024;2024-03-23T04:05:00;99170;;;9.1;100.0
68320;BME280;55168;51.120;17.024;2024-03-23T04:06:00;99180;;;9.1;100.0
68320;BME280;55168;51.120;17.024;2024-03-23T04:07:00;99170;;;9.1;100.0
68320;BME280;55168;51.120;17.024;2024-03-23T04:08:00;99170;;;9.1;100.0
68320;BME280;55168;51.120;17.024;2024-03-23T04:09:00;99170;;;9.1;100.0
68320;BME280;55168;51.120;17.024;2024-03-23T04:10:00;99170;;;9.1;100.0
68320;BME280;55168;51.120;17.024;2024-03-23T04:11:00;99170;;;9.1;100.0
68320;BME280;55168;51.120;17.024;2024-03-23T04:12:00;99170;;;9.1;100.0
68320;BME280;55168;51.120;17.024;2024-03-23T04:13:00;99170;;;9.1;100.0
68320;BME280;55168;51.120;17.024;2024-03-23T04:14:00;99170;;;9.1;100.0
68320;BME280;55168;51.120;17.024;2024-03-23T04:15:00;99170;;;9.1;100.0
68320;BME280;55168;51.120;17.024;2024-03-23T04:16:00;99170;;;9.2;100.0
68320;BME280;55168;51.120;17.024;2024-03-23T04:17:00;99170;;;9.2;100.0
68320;BME280;55168;51.120;17.024;2024-03-23T04:18:00;99170;;;9.2;100.0
68320;BME280;55168;51.120;17.024;2024-03-23T04:19:00;99170;;;9.2;100.0
68320;BME280;55168;51.120;17.024;2024-03-23T04:20:01;99170;;;9.2;100.0
68320;BME280;55168;51.120;17.024;2024-03-23T04:21:00;99170;;;9.1;100.0
68320;BME280;55168;51.120;17.024;2024-03-23T04:22:00;99170;;;9.1;100.0
68320;BME280;55168;51.120;17.024;2024-03-23T04:23:00;99170;;;9.1;100.0
68320;BME280;55168;51.120;17.024;2024-03-23T04:24:00;99180;;;9.1;100.0
68320;BME280;55168;51.120;17.024;2024-03-23T04:25:00;99180;;;9.1;100.0
68320;BME280;55168;51.120;17.024;2024-03-23T04:26:03;99180;;;9.1;100.0
68320;BME280;55168;51.120;17.024;2024-03-23T04:27:00;99180;;;9.0;100.0
68320;BME280;55168;51.120;17.024;2024-03-23T04:28:00;99180;;;9.0;100.0
68320;BME280;55168;51.120;17.024;2024-03-23T04:29:00;99180;;;9.0;100.0
68320;BME280;55168;51.120;17.024;2024-03-23T04:30:00;99180;;;9.0;100.0
68320;BME280;55168;51.120;17.024;2024-03-23T04:31:03;99170;;;8.9;100.0
68320;BME280;55168;51.120;17.024;2024-03-23T04:32:00;99170;;;8.9;100.0
68320;BME280;55168;51.120;17.024;2024-03-23T04:33:00;99170;;;8.9;100.0
68320;BME280;55168;51.120;17.024;2024-03-23T04:34:00;99170;;;8.9;100.0
68320;BME280;55168;51.120;17.024;2024-03-23T04:35:00;99170;;;8.9;100.0
68320;BME280;55168;51.120;17.024;2024-03-23T04:36:00;99170;;;8.9;100.0
68320;BME280;55168;51.120;17.024;2024-03-23T04:37:00;99170;;;8.8;100.0
68320;BME280;55168;51.120;17.024;2024-03-23T04:38:00;99170;;;8.9;100.0
68320;BME280;55168;51.120;17.024;2024-03-23T04:39:00;99170;;;8.9;100.0
68320;BME280;55168;51.120;17.024;2024-03-23T04:40:00;99170;;;8.9;100.0
68320;BME280;55168;51.120;17.024;2024-03-23T04:41:00;99170;;;8.9;100.0
68320;BME280;55168;51.120;17.024;2024-03-23T04:42:00;99170;;;8.8;100.0
68320;BME280;55168;51.120;17.024;2024-03-23T04:43:00;99170;;;8.8;100.0
68320;BME280;55168;51.120;17.024;2024-03-23T04:44:00;99170;;;8.8;100.0
68320;BME280;55168;51.120;17.024;2024-03-23T04:45:00;99170;;;8.8;100.0
68320;BME280;55168;51.120;17.024;2024-03-23T04:46:00;99170;;;8.8;100.0
68320;BME280;55168;51.120;17.024;2024-03-23T04:47:00;99160;;;8.8;100.0
68320;BME280;55168;51.120;17.024;2024-03-23T04:48:00;99170;;;8.8;100.0
68320;BME280;55168;51.120;17.024;2024-03-23T04:49:00;99160;;;8.7;100.0
68320;BME280;55168;51.120;17.024;2024-03-23T04:50:00;99170;;;8.7;100.0
68320;BME280;55168;51.120;17.024;2024-03-23T04:51:00;99160;;;8.7;100.0
68320;BME280;55168;51.120;17.024;2024-03-23T04:52:00;99160;;;8.8;100.0
68320;BME280;55168;51.120;17.024;2024-03-23T04:53:00;99160;;;8.7;100.0
68320;BME280;55168;51.120;17.024;2024-03-23T04:54:00;99160;;;8.7;100.0
68320;BME280;55168;51.120;17.024;2024-03-23T04:55:00;99160;;;8.7;100.0
68320;BME280;55168;51.120;17.024;2024-03-23T04:56:00;99150;;;8.7;100.0
68320;BME280;55168;51.120;17.024;2024-03-23T04:57:00;99160;;;8.7;100.0
68320;BME280;55168;51.120;17.024;2024-03-23T04:58:00;99150;;;8.6;100.0
68320;BME280;55168;51.120;17.024;2024-03-23T04:59:00;99150;;;8.6;100.0
68320;BME280;55168;51.120;17.024;2024-03-23T05:00:00;99140;;;8.6;100.0
68320;BME280;55168;51.120;17.024;2024-03-23T05:01:00;99150;;;8.6;100.0
68320;BME280;55168;51.120;17.024;2024-03-23T05:02:00;99150;;;8.6;100.0
68320;BME280;55168;51.120;17.024;2024-03-23T05:03:00;99150;;;8.6;100.0
68320;BME280;55168;51.120;17.024;2024-03-23T05:04:00;99140;;;8.6;100.0
68320;BME280;55168;51.120;17.024;2024-03-23T05:05:00;99140;;;8.6;100.0
68320;BME280;55168;51.120;17.024;2024-03-23T05:06:00;99140;;;8.6;100.0
68320;BME280;55168;51.120;17.024;2024-03-23T05:07:00;99140;;;8.6;100.0
68320;BME280;55168;51.120;17.024;2024-03-23T05:08:00;99140;;;8.6;100.0
68320;BME280;55168;51.120;17.024;2024-03-23T05:09:00;99150;;;8.6;100.0
68320;BME280;55168;51.120;17.024;2024-03-23T05:10:00;99140;;;8.6;100.0
68320;BME280;55168;51.120;17.024;2024-03-23T05:11:00;99140;;;8.6;100.0
68320;BME280;55168;51.120;17.024;2024-03-23T05:12:00;99140;;;8.6;100.0
68320;BME280;55168;51.120;17.024;2024-03-23T05:13:00;99140;;;8.6;100.0
68320;BME280;55168;51.120;17.024;2024-03-23T05:14:00;99130;;;8.6;100.0
68320;BME280;55168;51.120;17.024;2024-03-23T05:15:00;99140;;;8.6;100.0
68320;BME280;55168;51.120;17.024;2024-03-23T05:16:00;99130;;;8.7;100.0
68320;BME280;55168;51.120;17.024;2024-03-23T05:17:00;99140;;;8.7;100.0
68320;BME280;55168;51.120;17.024;2024-03-23T05:18:00;99140;;;8.7;100.0
68320;BME280;55168;51.120;17.024;2024-03-23T05:19:00;99140;;;8.7;100.0
68320;BME280;55168;51.120;17.024;2024-03-23T05:20:00;99140;;;8.7;100.0
68320;BME280;55168;51.120;17.024;2024-03-23T05:21:00;99140;;;8.7;100.0
68320;BME280;55168;51.120;17.024;2024-03-23T05:22:00;99140;;;8.7;100.0
68320;BME280;55168;51.120;17.024;2024-03-23T05:23:00;99140;;;8.7;100.0
68320;BME280;55168;51.120;17.024;2024-03-23T05:24:00;99140;;;8.7;100.0
68320;BME280;55168;51.120;17.024;2024-03-23T05:25:00;99130;;;8.7;100.0
68320;BME280;55168;51.120;17.024;2024-03-23T05:26:00;99140;;;8.7;100.0
68320;BME280;55168;51.120;17.024;2024-03-23T05:27:00;99140;;;8.7;100.0
68320;BME280;55168;51.120;17.024;2024-03-23T05:28:00;99130;;;8.7;100.0
68320;BME280;55168;51.120;17.024;2024-03-23T05:29:00;99130;;;8.8;100.0
68320;BME280;55168;51.120;17.024;2024-03-23T05:30:00;99130;;;8.8;100.0
68320;BME280;55168;51.120;17.024;2024-03-23T05:31:00;99130;;;8.8;100.0
68320;BME280;55168;51.120;17.024;2024-03-23T05:32:00;99130;;;8.9;100.0
68320;BME280;55168;51.120;17.024;2024-03-23T05:33:00;99120;;;8.9;100.0
68320;BME280;55168;51.120;17.024;2024-03-23T05:34:00;99120;;;8.9;100.0
68320;BME280;55168;51.120;17.024;2024-03-23T05:35:00;99120;;;8.9;100.0
68320;BME280;55168;51.120;17.024;2024-03-23T05:36:00;99120;;;8.9;100.0
68320;BME280;55168;51.120;17.024;2024-03-23T05:37:00;99120;;;8.8;100.0
68320;BME280;55168;51.120;17.024;2024-03-23T05:38:00;99120;;;8.8;100.0
68320;BME280;55168;51.120;17.024;2024-03-23T05:39:00;99120;;;8.9;100.0
68320;BME280;55168;51.120;17.024;2024-03-23T05:40:00;99120;;;8.9;100.0
68320;BME280;55168;51.120;17.024;2024-03-23T05:41:00;99120;;;8.9;100.0
68320;BME280;55168;51.120;17.024;2024-03-23T05:42:00;99120;;;8.9;100.0
68320;BME280;55168;51.120;17.024;2024-03-23T05:43:00;99110;;;8.9;100.0
68320;BME280;55168;51.120;17.024;2024-03-23T05:44:00;99110;;;8.9;100.0
68320;BME280;55168;51.120;17.024;2024-03-23T05:45:00;99110;;;8.9;100.0
68320;BME280;55168;51.120;17.024;2024-03-23T05:46:00;99110;;;8.9;100.0
68320;BME280;55168;51.120;17.024;2024-03-23T05:47:00;99110;;;8.9;100.0
68320;BME280;55168;51.120;17.024;2024-03-23T05:48:00;99110;;;9.0;100.0
68320;BME280;55168;51.120;17.024;2024-03-23T05:49:01;99100;;;9.0;100.0
68320;BME280;55168;51.120;17.024;2024-03-23T05:50:00;99110;;;9.0;100.0
68320;BME280;55168;51.120;17.024;2024-03-23T05:51:00;99110;;;9.1;100.0
68320;BME280;55168;51.120;17.024;2024-03-23T05:52:00;99110;;;9.1;100.0
68320;BME280;55168;51.120;17.024;2024-03-23T05:53:00;99110;;;9.1;100.0
68320;BME280;55168;51.120;17.024;2024-03-23T05:54:00;99110;;;9.1;100.0
68320;BME280;55168;51.120;17.024;2024-03-23T05:55:00;99110;;;9.1;100.0
68320;BME280;55168;51.120;17.024;2024-03-23T05:56:00;99110;;;9.2;100.0
68320;BME280;55168;51.120;17.024;2024-03-23T05:57:00;99110;;;9.2;100.0
68320;BME280;55168;51.120;17.024;2024-03-23T05:58:00;99110;;;9.2;100.0
68320;BME280;55168;51.120;17.024;2024-03-23T05:59:00;99100;;;9.3;100.0
68320;BME280;55168;51.120;17.024;2024-03-23T06:00:00;99100;;;9.3;100.0
68320;BME280;55168;51.120;17.024;2024-03-23T06:01:00;99100;;;9.4;100.0
68320;BME280;55168;51.120;17.024;2024-03-23T06:02:00;99090;;;9.4;100.0
68320;BME280;55168;51.120;17.024;2024-03-23T06:03:00;99090;;;9.4;100.0
68320;BME280;55168;51.120;17.024;2024-03-23T06:04:00;99080;;;9.5;100.0
68320;BME280;55168;51.120;17.024;2024-03-23T06:05:00;99080;;;9.6;100.0
68320;BME280;55168;51.120;17.024;2024-03-23T06:06:00;99080;;;9.6;100.0
68320;BME280;55168;51.120;17.024;2024-03-23T06:07:00;99090;;;9.7;100.0
68320;BME280;55168;51.120;17.024;2024-03-23T06:08:00;99090;;;9.8;100.0
68320;BME280;55168;51.120;17.024;2024-03-23T06:09:00;99080;;;9.8;100.0
68320;BME280;55168;51.120;17.024;2024-03-23T06:10:00;99090;;;9.9;100.0
68320;BME280;55168;51.120;17.024;2024-03-23T06:11:00;99090;;;9.9;100.0
68320;BME280;55168;51.120;17.024;2024-03-23T06:12:00;99090;;;9.9;100.0
68320;BME280;55168;51.120;17.024;2024-03-23T06:13:00;99090;;;10.0;100.0
68320;BME280;55168;51.120;17.024;2024-03-23T06:14:00;99090;;;10.0;100.0
68320;BME280;55168;51.120;17.024;2024-03-23T06:15:00;99090;;;10.1;100.0
68320;BME280;55168;51.120;17.024;2024-03-23T06:16:00;99090;;;10.1;100.0
68320;BME280;55168;51.120;17.024;2024-03-23T06:17:00;99090;;;10.1;100.0
68320;BME280;55168;51.120;17.024;2024-03-23T06:18:00;99090;;;10.2;100.0
68320;BME280;55168;51.120;17.024;2024-03-23T06:19:00;99090;;;10.2;100.0
68320;BME280;55168;51.120;17.024;2024-03-23T06:20:00;99100;;;10.3;100.0
68320;BME280;55168;51.120;17.024;2024-03-23T06:21:00;99100;;;10.3;100.0
68320;BME280;55168;51.120;17.024;2024-03-23T06:22:00;99110;;;10.4;100.0
68320;BME280;55168;51.120;17.024;2024-03-23T06:23:01;99110;;;10.4;100.0
68320;BME280;55168;51.120;17.024;2024-03-23T06:24:00;99110;;;10.5;100.0
68320;BME280;55168;51.120;17.024;2024-03-23T06:25:00;99110;;;10.5;100.0
68320;BME280;55168;51.120;17.024;2024-03-23T06:26:00;99110;;;10.5;100.0
68320;BME280;55168;51.120;17.024;2024-03-23T06:27:00;99120;;;10.5;100.0